createdAt,value
2022-10-21T00:01:58.222Z,73.20
2022-10-21T00:04:25.883Z,73.49
2022-10-21T00:06:54.893Z,73.14
2022-10-21T00:09:22.565Z,73.10
2022-10-21T00:11:50.238Z,73.52
2022-10-21T00:14:17.907Z,73.44
2022-10-21T00:16:45.548Z,73.45
2022-10-21T00:19:13.306Z,73.32
2022-10-21T00:21:42.332Z,73.40
2022-10-21T00:24:11.443Z,73.18
2022-10-21T00:26:39.074Z,73.17
2022-10-21T00:29:06.714Z,73.41
2022-10-21T00:31:34.879Z,73.02
2022-10-21T00:34:02.532Z,73.28
2022-10-21T00:36:31.833Z,73.15
2022-10-21T00:38:59.475Z,73.24
2022-10-21T00:41:29.253Z,72.98
2022-10-21T00:44:00.201Z,72.94
2022-10-21T00:46:35.035Z,72.94
2022-10-21T00:49:07.054Z,72.84
2022-10-21T00:51:34.919Z,72.86
2022-10-21T00:54:03.749Z,72.95
2022-10-21T00:56:35.750Z,72.99
2022-10-21T00:59:05.789Z,72.86
2022-10-21T01:01:34.624Z,72.94
2022-10-21T01:04:03.819Z,73.00
2022-10-21T01:06:32.931Z,72.87
2022-10-21T01:09:01.553Z,72.92
2022-10-21T01:11:31.314Z,73.03
2022-10-21T01:14:37.356Z,72.79
2022-10-21T01:17:20.940Z,73.19
2022-10-21T01:20:21.668Z,73.04
2022-10-21T01:23:07.267Z,73.05
2022-10-21T01:25:54.788Z,72.91
2022-10-21T01:28:36.181Z,73.06
2022-10-21T01:31:11.172Z,73.18
2022-10-21T01:33:46.459Z,73.05
2022-10-21T01:36:27.471Z,73.22
2022-10-21T01:39:06.602Z,73.06
2022-10-21T01:41:41.100Z,72.83
2022-10-21T01:44:16.937Z,72.82
2022-10-21T01:46:49.904Z,72.97
2022-10-21T01:49:21.999Z,72.79
2022-10-21T01:51:49.975Z,73.02
2022-10-21T01:54:23.753Z,72.81
2022-10-21T01:56:52.457Z,72.96
2022-10-21T01:59:22.014Z,72.84
2022-10-21T02:01:52.939Z,72.84
2022-10-21T02:04:21.874Z,72.94
2022-10-21T02:06:49.783Z,72.90
2022-10-21T02:09:17.489Z,72.81
2022-10-21T02:11:48.086Z,72.65
2022-10-21T02:14:20.716Z,73.05
2022-10-21T02:16:49.536Z,72.85
2022-10-21T02:19:20.757Z,72.64
2022-10-21T02:21:53.012Z,72.69
2022-10-21T02:24:27.301Z,72.83
2022-10-21T02:26:55.346Z,72.73
2022-10-21T02:29:27.834Z,72.76
2022-10-21T02:32:14.158Z,72.66
2022-10-21T02:34:56.603Z,72.51
2022-10-21T02:37:32.510Z,72.91
2022-10-21T02:40:06.335Z,72.75
2022-10-21T02:42:37.687Z,72.68
2022-10-21T02:45:06.636Z,72.74
2022-10-21T02:47:37.537Z,72.67
2022-10-21T02:50:07.862Z,72.79
2022-10-21T02:52:35.515Z,72.54
2022-10-21T02:55:03.171Z,72.63
2022-10-21T02:57:30.805Z,72.58
2022-10-21T02:59:58.447Z,72.32
2022-10-21T03:02:26.114Z,72.52
2022-10-21T03:04:53.821Z,72.45
2022-10-21T03:07:22.824Z,72.52
2022-10-21T03:09:50.461Z,72.42
2022-10-21T03:12:18.141Z,72.64
2022-10-21T03:14:45.792Z,72.67
2022-10-21T03:17:13.435Z,72.46
2022-10-21T03:19:41.089Z,72.41
2022-10-21T03:22:08.710Z,72.68
2022-10-21T03:24:37.691Z,72.63
2022-10-21T03:27:05.500Z,72.50
2022-10-21T03:29:33.121Z,72.47
2022-10-21T03:32:00.742Z,72.42
2022-10-21T03:34:28.385Z,72.43
2022-10-21T03:36:56.035Z,72.41
2022-10-21T03:39:23.729Z,72.75
2022-10-21T03:41:52.734Z,72.40
2022-10-21T03:44:20.403Z,72.36
2022-10-21T03:46:48.079Z,72.28
2022-10-21T03:49:21.155Z,72.38
2022-10-21T03:51:49.802Z,72.77
2022-10-21T03:54:17.827Z,72.29
2022-10-21T03:56:46.020Z,72.51
2022-10-21T03:59:15.255Z,72.41
2022-10-21T04:01:43.012Z,72.48
2022-10-21T04:04:10.677Z,72.52
2022-10-21T04:06:38.338Z,72.42
2022-10-21T04:09:06.087Z,72.44
2022-10-21T04:11:33.779Z,72.29
2022-10-21T04:14:01.470Z,72.41
2022-10-21T04:16:30.546Z,72.56
2022-10-21T04:18:58.177Z,72.25
2022-10-21T04:21:25.896Z,72.32
2022-10-21T04:23:53.515Z,72.41
2022-10-21T04:26:21.190Z,72.34
2022-10-21T04:28:48.911Z,72.39
2022-10-21T04:31:16.535Z,72.15
2022-10-21T04:33:45.557Z,71.99
2022-10-21T04:36:13.474Z,72.14
2022-10-21T04:38:41.159Z,72.23
2022-10-21T04:41:08.786Z,72.00
2022-10-21T04:43:38.016Z,72.27
2022-10-21T04:46:07.623Z,72.16
2022-10-21T04:48:37.636Z,72.11
2022-10-21T04:51:07.430Z,72.35
2022-10-21T04:53:35.336Z,72.10
2022-10-21T04:56:03.014Z,72.06
2022-10-21T04:58:30.680Z,72.19
2022-10-21T05:00:58.358Z,72.06
2022-10-21T05:03:26.143Z,72.02
2022-10-21T05:05:53.910Z,71.85
2022-10-21T05:08:23.354Z,72.10
2022-10-21T05:10:51.031Z,71.91
2022-10-21T05:13:18.716Z,72.14
2022-10-21T05:15:46.353Z,71.97
2022-10-21T05:18:13.993Z,71.96
2022-10-21T05:20:42.367Z,71.96
2022-10-21T05:23:10.086Z,72.13
2022-10-21T05:25:39.081Z,72.04
2022-10-21T05:28:06.701Z,71.87
2022-10-21T05:30:34.376Z,71.85
2022-10-21T05:33:02.103Z,72.01
2022-10-21T05:35:29.864Z,71.90
2022-10-21T05:37:57.576Z,71.80
2022-10-21T05:40:25.347Z,71.90
2022-10-21T05:42:54.398Z,71.89
2022-10-21T05:45:22.135Z,72.26
2022-10-21T05:47:49.778Z,72.04
2022-10-21T05:50:17.745Z,72.02
2022-10-21T05:52:45.426Z,72.08
2022-10-21T05:55:13.250Z,71.85
2022-10-21T05:57:41.022Z,71.97
2022-10-21T06:00:11.882Z,71.96
2022-10-21T06:02:39.876Z,71.79
2022-10-21T06:05:08.505Z,72.03
2022-10-21T06:07:36.544Z,72.13
2022-10-21T06:10:05.071Z,71.69
2022-10-21T06:12:32.902Z,71.59
2022-10-21T06:15:00.591Z,71.95
2022-10-21T06:17:29.602Z,71.88
2022-10-21T06:19:57.327Z,71.49
2022-10-21T06:22:24.995Z,71.83
2022-10-21T06:24:52.682Z,71.81
2022-10-21T06:27:20.438Z,71.76
2022-10-21T06:29:48.309Z,71.64
2022-10-21T06:32:15.990Z,71.56
2022-10-21T06:34:44.977Z,72.06
2022-10-21T06:37:12.684Z,72.42
2022-10-21T06:39:40.287Z,71.84
2022-10-21T06:42:07.887Z,72.07
2022-10-21T06:44:35.577Z,71.86
2022-10-21T06:47:03.230Z,72.26
2022-10-21T06:49:31.351Z,72.21
2022-10-21T06:52:00.659Z,72.02
2022-10-21T06:54:28.615Z,72.03
2022-10-21T06:56:56.247Z,71.76
2022-10-21T06:59:23.883Z,71.87
2022-10-21T07:02:06.898Z,72.04
2022-10-21T07:04:34.647Z,71.79
2022-10-21T07:07:03.697Z,71.89
2022-10-21T07:09:31.672Z,71.94
2022-10-21T07:12:01.379Z,71.80
2022-10-21T07:14:29.293Z,71.56
2022-10-21T07:16:56.954Z,71.82
2022-10-21T07:19:24.632Z,71.85
2022-10-21T07:21:52.364Z,72.00
2022-10-21T07:24:22.696Z,72.23
2022-10-21T07:26:51.004Z,72.05
2022-10-21T07:29:19.071Z,72.06
2022-10-21T07:31:46.806Z,71.79
2022-10-21T07:34:14.483Z,71.84
2022-10-21T07:36:44.987Z,72.05
2022-10-21T07:39:15.741Z,72.22
2022-10-21T07:41:47.264Z,72.04
2022-10-21T07:44:15.463Z,72.36
2022-10-21T07:46:45.413Z,72.38
2022-10-21T07:49:14.011Z,72.07
2022-10-21T07:51:42.114Z,72.14
2022-10-21T07:54:10.070Z,71.99
2022-10-21T07:56:41.301Z,72.33
2022-10-21T07:59:13.118Z,72.09
2022-10-21T08:01:44.336Z,72.41
2022-10-21T08:04:13.941Z,72.54
2022-10-21T08:06:41.778Z,72.07
2022-10-21T08:09:09.579Z,72.47
2022-10-21T08:11:37.287Z,72.14
2022-10-21T08:14:06.660Z,72.15
2022-10-21T08:16:36.030Z,72.19
2022-10-21T08:19:05.642Z,71.80
2022-10-21T08:21:33.678Z,71.92
2022-10-21T08:24:03.552Z,72.13
2022-10-21T08:26:31.233Z,72.11
2022-10-21T08:31:33.159Z,71.80
2022-10-21T08:34:02.188Z,71.95
2022-10-21T08:36:29.981Z,72.28
2022-10-21T08:38:59.399Z,72.52
2022-10-21T08:42:03.159Z,72.11
2022-10-21T08:44:38.011Z,72.46
2022-10-21T08:47:12.817Z,72.09
2022-10-21T08:49:52.627Z,71.87
2022-10-21T08:52:23.794Z,71.35
2022-10-21T08:54:57.903Z,71.00
2022-10-21T08:57:25.661Z,70.74
2022-10-21T08:59:53.896Z,70.56
2022-10-21T09:02:33.525Z,70.15
2022-10-21T09:05:20.397Z,69.25
2022-10-21T09:07:56.042Z,68.71
2022-10-21T09:10:39.326Z,68.55
2022-10-21T09:13:14.803Z,68.93
2022-10-21T09:15:53.539Z,69.30
2022-10-21T09:18:34.054Z,70.08
2022-10-21T09:21:10.531Z,70.15
2022-10-21T09:23:59.733Z,70.41
2022-10-21T09:26:42.354Z,70.40
2022-10-21T09:29:25.140Z,70.58
2022-10-21T09:31:57.255Z,70.82
2022-10-21T09:34:38.489Z,70.90
2022-10-21T09:37:13.572Z,70.88
2022-10-21T09:39:45.921Z,71.01
2022-10-21T09:42:35.241Z,71.17
2022-10-21T09:45:02.153Z,71.22
2022-10-21T09:47:29.892Z,71.59
2022-10-21T09:50:07.295Z,71.06
2022-10-21T09:52:38.312Z,70.92
2022-10-21T09:55:07.132Z,70.17
2022-10-21T09:57:45.752Z,70.11
2022-10-21T10:00:14.352Z,70.29
2022-10-21T10:02:45.117Z,70.34
2022-10-21T10:05:38.247Z,70.84
2022-10-21T10:08:30.188Z,70.96
2022-10-21T10:11:11.735Z,71.05
2022-10-21T10:13:42.230Z,71.47
2022-10-21T10:16:22.288Z,71.47
2022-10-21T10:18:51.974Z,71.43
2022-10-21T10:21:20.819Z,71.60
2022-10-21T10:23:52.644Z,71.78
2022-10-21T10:26:28.524Z,72.04
2022-10-21T10:28:59.126Z,72.06
2022-10-21T10:31:32.567Z,72.05
2022-10-21T10:34:04.933Z,72.18
2022-10-21T10:36:37.362Z,72.37
2022-10-21T10:39:09.766Z,72.48
2022-10-21T10:41:40.241Z,72.66
2022-10-21T10:44:19.523Z,72.49
2022-10-21T10:46:54.386Z,72.78
2022-10-21T10:49:22.969Z,73.04
2022-10-21T10:52:08.110Z,73.03
2022-10-21T10:54:37.883Z,73.21
2022-10-21T10:57:11.066Z,73.16
2022-10-21T10:59:43.270Z,73.29
2022-10-21T11:02:35.032Z,73.41
2022-10-21T11:05:17.766Z,73.51
2022-10-21T11:07:48.546Z,73.89
2022-10-21T11:10:29.519Z,73.88
2022-10-21T11:12:57.672Z,73.84
2022-10-21T11:15:32.532Z,75.68
2022-10-21T11:18:23.195Z,75.05
2022-10-21T11:21:00.842Z,75.25
2022-10-21T11:24:08.732Z,74.47
2022-10-21T11:26:45.408Z,74.48
2022-10-21T11:29:19.929Z,74.49
2022-10-21T11:32:10.816Z,74.42
2022-10-21T11:34:49.436Z,74.44
2022-10-21T11:37:25.914Z,74.64
2022-10-21T11:39:59.838Z,74.70
2022-10-21T11:42:35.799Z,74.72
2022-10-21T11:45:25.657Z,74.67
2022-10-21T11:48:00.009Z,74.76
2022-10-21T11:50:35.338Z,74.92
2022-10-21T11:53:17.863Z,74.74
2022-10-21T11:55:52.972Z,74.27
2022-10-21T11:58:30.970Z,74.07
2022-10-21T12:01:11.137Z,74.09
2022-10-21T12:03:58.443Z,75.54
2022-10-21T12:06:34.211Z,75.65
2022-10-21T12:09:07.367Z,75.69
2022-10-21T12:11:39.899Z,75.11
2022-10-21T12:14:31.063Z,75.04
2022-10-21T12:17:03.036Z,74.71
2022-10-21T12:19:31.255Z,74.50
2022-10-21T12:21:59.515Z,74.62
2022-10-21T12:24:40.974Z,74.76
2022-10-21T12:27:17.552Z,74.85
2022-10-21T12:29:57.262Z,74.64
2022-10-21T12:32:32.683Z,74.58
2022-10-21T12:35:01.860Z,74.52
2022-10-21T12:38:08.689Z,74.63
2022-10-21T12:40:39.954Z,74.40
2022-10-21T12:43:19.769Z,75.26
2022-10-21T12:46:02.228Z,75.39
2022-10-21T12:48:36.277Z,75.47
2022-10-21T12:51:07.755Z,74.57
2022-10-21T12:53:39.930Z,74.47
2022-10-21T12:56:09.956Z,74.86
2022-10-21T12:58:42.329Z,74.70
2022-10-21T13:01:40.787Z,74.65
2022-10-21T13:04:42.093Z,74.96
2022-10-21T13:07:35.971Z,74.83
2022-10-21T13:10:17.459Z,75.05
2022-10-21T13:12:47.519Z,74.87
2022-10-21T13:15:46.626Z,74.95
2022-10-21T13:18:54.293Z,75.01
2022-10-21T13:21:36.435Z,76.11
2022-10-21T13:24:20.294Z,76.03
2022-10-21T13:26:50.792Z,75.56
2022-10-21T13:29:48.007Z,75.17
2022-10-21T13:32:28.229Z,75.38
2022-10-21T13:35:19.251Z,75.78
2022-10-21T13:37:55.397Z,75.69
2022-10-21T13:40:26.898Z,75.12
2022-10-21T13:42:59.024Z,75.94
2022-10-21T13:45:30.599Z,75.54
2022-10-21T13:48:07.334Z,75.19
2022-10-21T13:50:40.690Z,75.69
2022-10-21T13:53:30.312Z,75.53
2022-10-21T13:56:00.654Z,75.27
2022-10-21T13:58:30.211Z,75.14
2022-10-21T14:00:59.115Z,74.85
2022-10-21T14:03:28.053Z,75.14
2022-10-21T14:06:00.129Z,75.02
2022-10-21T14:08:31.818Z,74.94
2022-10-21T14:11:03.202Z,74.84
2022-10-21T14:13:35.944Z,75.19
2022-10-21T14:16:05.136Z,75.19
2022-10-21T14:18:37.242Z,75.40
2022-10-21T14:21:09.645Z,75.30
2022-10-21T14:23:37.438Z,74.94
2022-10-21T14:26:08.321Z,75.21
2022-10-21T14:28:37.842Z,75.42
2022-10-21T14:31:11.592Z,75.21
2022-10-21T14:33:43.291Z,75.36
2022-10-21T14:36:16.120Z,75.66
2022-10-21T14:38:52.881Z,74.94
2022-10-21T14:41:25.444Z,75.01
2022-10-21T14:43:55.332Z,74.96
2022-10-21T14:46:23.248Z,75.03
2022-10-21T14:48:54.809Z,75.07
2022-10-21T14:51:24.278Z,74.94
2022-10-21T14:53:55.908Z,74.89
2022-10-21T14:56:29.310Z,74.75
2022-10-21T14:58:59.228Z,74.71
2022-10-21T15:01:27.917Z,74.55
2022-10-21T15:03:57.224Z,74.92
2022-10-21T15:06:28.150Z,74.68
2022-10-21T15:09:02.120Z,75.01
2022-10-21T15:11:39.319Z,74.82
2022-10-21T15:14:18.711Z,75.17
2022-10-21T15:16:49.484Z,75.23
2022-10-21T15:19:19.839Z,75.50
2022-10-21T15:21:51.871Z,75.59
2022-10-21T15:24:22.772Z,75.19
2022-10-21T15:26:53.546Z,74.94
2022-10-21T15:29:27.878Z,75.01
2022-10-21T15:31:58.250Z,74.80
2022-10-21T15:34:26.324Z,75.04
2022-10-21T15:36:55.383Z,75.19
2022-10-21T15:39:23.360Z,75.17
2022-10-21T15:41:54.965Z,75.31
2022-10-21T15:44:25.920Z,75.41
2022-10-21T15:47:00.426Z,75.26
2022-10-21T15:49:32.118Z,75.17
2022-10-21T15:52:01.770Z,75.25
2022-10-21T15:54:29.500Z,74.86
2022-10-21T15:56:59.430Z,74.86
2022-10-21T15:59:29.510Z,74.80
2022-10-21T16:01:57.951Z,74.83
2022-10-21T16:04:25.985Z,74.92
2022-10-21T16:06:54.723Z,74.91
2022-10-21T16:09:25.752Z,74.78
2022-10-21T16:12:00.364Z,74.79
2022-10-21T16:14:30.147Z,74.74
2022-10-21T16:16:59.241Z,74.71
2022-10-21T16:19:27.346Z,74.69
2022-10-21T16:21:55.057Z,74.71
2022-10-21T16:24:24.082Z,74.56
2022-10-21T16:26:51.735Z,74.68
2022-10-21T16:29:21.746Z,74.57
2022-10-21T16:31:49.672Z,74.39
2022-10-21T16:34:17.680Z,74.62
2022-10-21T16:36:45.384Z,74.58
2022-10-21T16:39:15.560Z,74.41
2022-10-21T16:41:44.613Z,74.44
2022-10-21T16:44:12.305Z,74.49
2022-10-21T16:46:42.580Z,74.49
2022-10-21T16:49:13.741Z,74.41
2022-10-21T16:51:42.956Z,74.41
2022-10-21T16:54:11.244Z,74.29
2022-10-21T16:56:38.924Z,74.31
2022-10-21T16:59:08.097Z,74.19
2022-10-21T17:01:35.810Z,74.36
2022-10-21T17:04:03.642Z,74.19
2022-10-21T17:06:31.937Z,74.22
2022-10-21T17:08:59.714Z,74.28
2022-10-21T17:11:32.987Z,74.31
2022-10-21T17:14:00.823Z,74.23
2022-10-21T17:16:29.886Z,74.24
2022-10-21T17:18:57.726Z,74.20
2022-10-21T17:21:27.125Z,74.17
2022-10-21T17:23:55.830Z,74.31
2022-10-21T17:26:23.653Z,74.24
2022-10-21T17:28:51.804Z,74.18
2022-10-21T17:31:21.953Z,74.11
2022-10-21T17:33:52.702Z,74.24
2022-10-21T17:36:21.716Z,74.13
2022-10-21T17:38:49.403Z,74.19
2022-10-21T17:41:20.318Z,74.11
2022-10-21T17:43:48.271Z,74.26
2022-10-21T17:46:19.534Z,73.96
2022-10-21T17:48:51.887Z,74.06
2022-10-21T17:51:22.215Z,73.75
2022-10-21T17:53:50.233Z,74.11
2022-10-21T17:56:18.705Z,73.92
2022-10-21T17:58:46.719Z,73.90
2022-10-21T18:01:15.088Z,73.87
2022-10-21T18:03:42.849Z,74.05
2022-10-21T18:06:12.988Z,73.83
2022-10-21T18:08:40.705Z,73.91
2022-10-21T18:11:10.250Z,73.73
2022-10-21T18:13:38.140Z,73.84
2022-10-21T18:16:07.767Z,73.87
2022-10-21T18:18:36.622Z,73.82
2022-10-21T18:21:05.925Z,73.49
2022-10-21T18:23:35.187Z,73.61
2022-10-21T18:26:04.016Z,73.54
2022-10-21T18:28:32.410Z,73.57
2022-10-21T18:31:00.326Z,73.35
2022-10-21T18:33:28.398Z,73.32
2022-10-21T18:35:56.108Z,73.34
2022-10-21T18:38:24.038Z,73.34
2022-10-21T18:41:02.193Z,73.26
2022-10-21T18:43:40.793Z,73.25
2022-10-21T18:46:08.522Z,73.28
2022-10-21T18:48:36.970Z,73.15
2022-10-21T18:51:08.209Z,73.26
2022-10-21T18:53:37.070Z,73.33
2022-10-21T18:56:08.607Z,73.18
2022-10-21T18:58:37.657Z,73.19
2022-10-21T19:01:06.172Z,73.26
2022-10-21T19:03:33.815Z,73.23
2022-10-21T19:06:16.533Z,73.27
2022-10-21T19:08:44.344Z,72.86
2022-10-21T19:11:13.508Z,73.13
2022-10-21T19:13:41.183Z,73.09
2022-10-21T19:16:11.748Z,73.13
2022-10-21T19:18:39.413Z,73.00
2022-10-21T19:21:07.626Z,73.08
2022-10-21T19:23:35.637Z,73.07
2022-10-21T19:26:04.083Z,73.01
2022-10-21T19:28:33.713Z,73.02
2022-10-21T19:31:01.534Z,73.08
2022-10-21T19:33:30.491Z,72.99
2022-10-21T19:36:00.194Z,72.95
2022-10-21T19:38:43.176Z,72.89
2022-10-21T19:41:13.721Z,72.96
2022-10-21T19:43:42.747Z,72.81
2022-10-21T19:46:15.454Z,72.77
2022-10-21T19:48:43.178Z,72.86
2022-10-21T19:51:15.175Z,72.87
2022-10-21T19:53:44.969Z,72.77
2022-10-21T19:56:13.879Z,72.82
2022-10-21T19:58:46.325Z,72.80
2022-10-21T20:01:16.452Z,72.72
2022-10-21T20:03:45.949Z,72.72
2022-10-21T20:06:15.549Z,72.69
2022-10-21T20:08:43.762Z,72.80
2022-10-21T20:11:13.995Z,72.69
2022-10-21T20:13:44.246Z,72.63
2022-10-21T20:16:16.047Z,72.64
2022-10-21T20:18:43.694Z,72.61
2022-10-21T20:21:11.461Z,72.67
2022-10-21T20:23:39.148Z,72.68
2022-10-21T20:26:08.818Z,72.92
2022-10-21T20:28:36.854Z,72.69
2022-10-21T20:31:07.428Z,72.71
2022-10-21T20:33:37.583Z,72.51
2022-10-21T20:36:05.547Z,72.59
2022-10-21T20:38:33.925Z,72.60
2022-10-21T20:41:05.915Z,72.41
2022-10-21T20:43:34.815Z,72.35
2022-10-21T20:46:02.972Z,72.32
2022-10-21T20:48:33.052Z,72.36
2022-10-21T20:51:04.972Z,72.35
2022-10-21T20:53:32.869Z,72.35
2022-10-21T20:56:00.903Z,71.79
2022-10-21T20:58:28.651Z,72.05
2022-10-21T21:00:56.587Z,72.37
2022-10-21T21:03:24.355Z,72.15
2022-10-21T21:05:53.433Z,72.12
2022-10-21T21:08:21.135Z,72.16
2022-10-21T21:10:48.784Z,72.21
2022-10-21T21:13:16.475Z,72.17
2022-10-21T21:15:44.175Z,72.25
2022-10-21T21:18:14.052Z,72.18
2022-10-21T21:20:41.663Z,72.23
2022-10-21T21:23:10.687Z,71.94
2022-10-21T21:25:38.363Z,71.96
2022-10-21T21:28:06.050Z,71.99
2022-10-21T21:30:33.719Z,72.10
2022-10-21T21:33:01.384Z,72.03
2022-10-21T21:35:29.497Z,72.02
2022-10-21T21:37:57.117Z,71.78
2022-10-21T21:40:26.168Z,71.87
2022-10-21T21:42:53.832Z,71.92
2022-10-21T21:45:21.502Z,71.97
2022-10-21T21:47:49.162Z,71.93
2022-10-21T21:50:16.828Z,71.94
2022-10-21T21:52:44.890Z,71.90
2022-10-21T21:55:12.714Z,71.77
2022-10-21T21:57:41.719Z,71.84
2022-10-21T22:00:10.848Z,71.78
2022-10-21T22:02:38.906Z,71.74
2022-10-21T22:05:07.605Z,71.78
2022-10-21T22:07:35.242Z,71.90
2022-10-21T22:10:02.924Z,71.77
2022-10-21T22:12:30.658Z,71.73
2022-10-21T22:14:59.678Z,71.81
2022-10-21T22:17:27.338Z,71.81
2022-10-21T22:19:55.143Z,71.87
2022-10-21T22:22:22.805Z,71.81
2022-10-21T22:24:50.593Z,71.69
2022-10-21T22:27:18.324Z,71.78
2022-10-21T22:29:45.979Z,71.70
2022-10-21T22:32:14.990Z,71.79
2022-10-21T22:34:42.638Z,71.74
2022-10-21T22:37:10.317Z,71.82
2022-10-21T22:39:38.049Z,71.74
2022-10-21T22:42:05.700Z,71.70
2022-10-21T22:44:33.384Z,71.70
2022-10-21T22:47:01.059Z,71.69
2022-10-21T22:49:30.100Z,71.78
2022-10-21T22:51:57.766Z,71.71
2022-10-21T22:54:48.157Z,71.67
2022-10-21T22:57:13.189Z,71.81
2022-10-21T22:59:40.906Z,71.73
2022-10-21T23:02:08.540Z,71.81
2022-10-21T23:04:37.599Z,71.67
2022-10-21T23:07:05.323Z,71.62
2022-10-21T23:09:33.045Z,71.69
2022-10-21T23:12:00.680Z,71.64
2022-10-21T23:14:28.518Z,71.65
2022-10-21T23:16:56.180Z,71.71
2022-10-21T23:19:23.897Z,71.59
2022-10-21T23:21:52.953Z,71.60
2022-10-21T23:24:20.647Z,71.56
2022-10-21T23:26:48.283Z,71.62
2022-10-21T23:29:16.066Z,71.43
2022-10-21T23:31:43.749Z,71.51
2022-10-21T23:34:11.431Z,71.54
2022-10-21T23:36:39.121Z,71.48
2022-10-21T23:39:08.227Z,71.55
2022-10-21T23:41:36.010Z,71.32
2022-10-21T23:44:03.723Z,71.31
2022-10-21T23:46:31.487Z,71.46
2022-10-21T23:48:59.144Z,71.38
2022-10-21T23:51:26.929Z,71.28
2022-10-21T23:53:54.587Z,71.30
2022-10-21T23:56:23.786Z,71.21
2022-10-21T23:58:51.507Z,71.33
